Justin Morris

Chefscout - Real Salt Lake
22 Feb 2028
Dienstag
Verarbeitung

Persönlichkeit

Anpassungsfähigkeit (4) Ehrgeiz (15) Kontroverse (19) Loyalität (16) Druck (6) Professionalität (9) Fairness (16) Temperament (8)

Profil

Trainerstil Demokratisch
Lizenz Kontinentale B
Entschlossenheit 8
Menschenführung 6
Motivation 4
Disziplin 9
Arbeitszufriedenheit
100%
Ermüdung
0%
Rolle Chefscout
Gehalt 52.7K p/W
Vertrag 14.03.2029

Leistung

Verhalten Gut
Trainingseffektivität
36%
Spielerentwicklung
50%
Verletzungsprävention
30%
Taktische Umsetzung
55%

Letzte Ereignisse

Nahm an einer Scouting-Besprechung teil jetzt
Empfahl ein Transferziel jetzt
Empfahl ein Transferziel jetzt
Empfahl ein Transferziel jetzt
Empfahl ein Transferziel jetzt
Legte dem Vorstand ein Dossier vor jetzt
Legte dem Vorstand ein Dossier vor 7T her
Legte dem Vorstand ein Dossier vor 7T her

Aktuell beobachtet

131
Spieler Verein Status Fähigkeit Vertrauen Beobachtet Zuletzt beobachtet Letzte Stimme
Fuzy Taylor Medeama Aktiv 79 / 77 40% 3 14.02.2028 -
Bradley Phiri Gornik Zabrze Aktiv 112 / 112 66% 1 14.02.2028 Befürworten
Daniel Karlsbakk Sarpsborg 08 Verloren 124 / 126 66% 1 14.02.2028 Befürworten
Mikkel Hope Haugesund Verloren 108 / 108 40% 1 14.02.2028 -
Gopolang Taunyane CR Belouizdad Aktiv 90 / 103 40% 1 14.02.2028 -
Giovanni Leoni Bradford City Aktiv 141 / 154 40% 1 13.02.2028 -
Luis Otávio Colorado Rapids Aktiv 107 / 126 40% 1 13.02.2028 -
Kauã Moraes Cruzeiro Aktiv 131 / 137 40% 1 13.02.2028 -
Taher Mohamed Real Salt Lake Aktiv 119 / 119 67% 1 02.08.2027 Befürworten
Razvan Mitrita San Diego Football Club Aktiv 118 / 120 66% 1 08.07.2027 Befürworten
Davide Bartesaghi AC Milan Aktiv 142 / 136 40% 4 07.07.2027 -
Gonçalo Oliveira Benfica Aktiv 120 / 106 40% 3 07.07.2027 -
Dylan Lawlor Cardiff City Aktiv 109 / 111 40% 1 07.07.2027 -
Rivaldo Grobler Free State Stars Aktiv 106 / 98 40% 3 05.07.2027 -
Christ Inao Oulaï Fiorentina Aktiv 145 / 138 40% 7 05.07.2027 -
Felix Afful Liberty Professionals Aktiv 76 / 97 40% 2 04.07.2027 -
Tiago Freitas Benfica Aktiv 116 / 135 40% 2 04.07.2027 -
Juan Giménez Celta Aktiv 113 / 144 40% 3 04.07.2027 -
Daniel Kelly Oxford United Aktiv 112 / 102 40% 5 02.07.2027 -
Riley Owen Trento Aktiv 100 / 94 40% 4 02.07.2027 -
Jofre Torrents Ajax Aktiv 129 / 124 40% 3 01.07.2027 -
Sascha Britschgi Padova Aktiv 109 / 130 40% 1 01.07.2027 -
Joseph Nuhu Hasaacas Aktiv 77 / 84 40% 2 30.06.2027 -
Caleb Yirenkyi Coventry City Aktiv 130 / 150 40% 1 26.06.2027 -
David Atiemo Liberty Professionals Aktiv 82 / 90 40% 2 24.06.2027 -
Ernie Weaver AFC Wimbledon Aktiv 120 / 109 40% 1 24.06.2027 -
Joel McGregor Swindon Town Aktiv 83 / 84 40% 3 21.06.2027 -
Daniel Dennis Ikorodu City Aktiv 96 / 92 40% 1 18.06.2027 -
Ezra Mayers West Ham United Aktiv 116 / 119 40% 2 17.06.2027 -
Martim Cunha Porto Aktiv 93 / 108 40% 1 15.06.2027 -
Keagan Tau Ajax Cape Town Aktiv 85 / 103 40% 1 15.06.2027 -
Christos Mouzakitis Hull City Aktiv 137 / 153 40% 4 13.06.2027 -
Darryl Bakola Padova Aktiv 109 / 135 40% 1 13.06.2027 -
Issa Yusuf Shooting Stars Aktiv 83 / 101 40% 1 13.06.2027 -
Jan Bürger Gillingham Aktiv 111 / 132 40% 2 09.06.2027 -
Zane Albarus Cambridge United Aktiv 90 / 114 40% 1 09.06.2027 -
Keagan Phiri Platinum Stars Aktiv 98 / 119 40% 2 04.06.2027 -
Edwin Asamoah Berekum Chelsea Aktiv 82 / 95 40% 2 04.06.2027 -
Hlompho Lorch Ajax Cape Town Aktiv 93 / 92 40% 5 03.06.2027 -
Adam Bakoune Ospitaletto Aktiv 94 / 83 40% 3 30.05.2027 -
Finley McAllister Grimsby Town Aktiv 86 / 83 40% 1 28.05.2027 -
Kazunari Kita Real Sociedad Aktiv 103 / 91 40% 1 24.05.2027 -
Matvii Ponomarenko Dynamo Kyiv Aktiv 120 / 128 40% 1 19.04.2027 -
Víctor Guzmán Sporting CP Aktiv 107 / 83 40% 1 19.04.2027 -
Kutlwano Letlhaku Ajax Cape Town Aktiv 126 / 109 40% 1 06.04.2027 -
Zack Nelson Bromley Aktiv 101 / 93 40% 1 06.04.2027 -
Ethan Williams Peterborough United Aktiv 108 / 113 40% 2 29.03.2027 -
Calum Agius Crewe Alexandra Aktiv 96 / 112 40% 1 29.03.2027 -
Dom Ballard Leyton Orient Aktiv 115 / 134 40% 1 22.03.2027 -
Gustavo Ferreira Benfica Aktiv 83 / 81 40% 1 22.03.2027 -
Dramane Kamagaté USM Alger Aktiv 102 / 120 40% 1 22.03.2027 -
Thomas Waddingham Portsmouth Aktiv 111 / 114 40% 1 15.03.2027 -
Baylee Dipepa Norwich City Aktiv 96 / 110 40% 1 15.03.2027 -
Mateus Mané Manchester United Aktiv 144 / 152 40% 1 15.03.2027 -
Mpho Khethang AS Police Aktiv 83 / 98 40% 1 01.03.2027 -
Josh King Chelsea Aktiv 131 / 149 40% 2 22.02.2027 -
Khama Dolly Utrecht Aktiv 123 / 124 67% 1 14.02.2027 Befürworten
Juan Bezerra BK Hacken Verloren 117 / 121 66% 1 14.02.2027 Befürworten
Ilyas Ansah Hull City Aktiv 122 / 149 40% 1 13.02.2027 -
Kristoffer Lund Birmingham Aktiv 118 / 142 40% 1 13.02.2027 -
Florentino Luís Ipswich Town Aktiv 139 / 135 40% 2 10.02.2027 -
Isaiah Jones Luton Town Aktiv 120 / 127 40% 1 10.02.2027 -
Ali Ahmed Norwich City Aktiv 133 / 135 40% 1 10.02.2027 -
Mduduzi Shabalala Kaizer Chiefs Aktiv 108 / 98 40% 3 09.02.2027 -
Tom Fellows Southampton Aktiv 133 / 128 40% 2 09.02.2027 -
Xavier Amaechi Plymouth Argyle Aktiv 115 / 103 40% 1 09.02.2027 -
Jack McGlynn Stoke City Aktiv 135 / 147 40% 2 08.02.2027 Mehr Infos nötig
Tyrese Campbell Sheffield United Aktiv 119 / 118 40% 2 07.02.2027 -
Tomáš Rigo Stoke City Aktiv 122 / 116 40% 1 07.02.2027 -
David Ozoh Derby County Aktiv 131 / 121 40% 1 07.02.2027 -
Cemran Dansin Orlando Pirates Aktiv 103 / 101 40% 3 05.02.2027 -
Max Bird Birmingham Aktiv 120 / 126 40% 3 05.02.2027 -
Kasey McAteer Ipswich Town Aktiv 128 / 123 40% 1 05.02.2027 -
Marcelo Allende Mamelodi Sundowns Aktiv 127 / 140 40% 6 04.02.2027 -
Tshepang Moremi Orlando Pirates Aktiv 105 / 125 40% 12 03.02.2027 -
Koki Saito Queens Park Rangers Aktiv 127 / 124 40% 1 03.02.2027 -
Tyler Goodrham Oxford United Aktiv 126 / 114 40% 1 01.02.2027 -
Jack Rudoni Coventry City Aktiv 127 / 134 40% 2 31.01.2027 -
Scott Twine Bristol City Aktiv 133 / 130 40% 1 30.01.2027 -
Derensili Sanches Fernandes Huddersfield Town Aktiv 117 / 130 40% 1 30.01.2027 -
Giorgi Chakvetadze Watford Aktiv 124 / 130 40% 1 29.01.2027 -
Kwame Poku Queens Park Rangers Aktiv 129 / 128 40% 1 29.01.2027 -
Isaac Price West Bromwich Albion Aktiv 125 / 135 40% 1 27.01.2027 -
Ronald Swansea City Aktiv 114 / 139 40% 1 27.01.2027 -
Cian Ashford Cardiff City Aktiv 105 / 103 40% 1 25.01.2027 -
Joe Gelhardt Hull City Aktiv 143 / 113 40% 1 25.01.2027 -
Callum Hudson-Odoi Nottingham Forest Aktiv 143 / 168 40% 1 23.01.2027 -
Kwadwo Baah Watford Aktiv 127 / 108 40% 1 23.01.2027 -
Suleiman Camara Slovan Bratislava Aktiv 111 / 128 40% 5 18.01.2027 -
Simphiwe Selepe Orlando Pirates Aktiv 106 / 134 40% 1 18.01.2027 -
Christian Krasnodar Aktiv 131 / 131 40% 8 16.01.2027 -
Bongani Modiba Black Aces Aktiv 105 / 124 40% 6 14.01.2027 -
Mandla Erasmus SuperSport United Aktiv 116 / 123 40% 5 13.01.2027 -
Arjan Malić Sturm Graz Aktiv 117 / 140 40% 1 13.01.2027 -
Ruben van Bommel Ferencvaros Aktiv 133 / 148 40% 4 03.01.2027 -
Nathan Ordaz Metalist Aktiv 99 / 127 40% 1 30.12.2026 -
Reda Khadra Qarabag Aktiv 128 / 126 40% 6 28.12.2026 -
Giacomo Raspadori Atalanta Aktiv 135 / 137 40% 1 28.12.2026 -
Max Conway Bolton Wanderers Aktiv 109 / 117 40% 2 20.12.2026 -
Angelo Gattermayer Wolfsberger AC Aktiv 135 / 106 40% 2 19.12.2026 -
Alan Lescano Argentinos Juniors Aktiv 126 / 134 40% 1 19.12.2026 -
Thalente Mbatha Orlando Pirates Aktiv 105 / 107 40% 2 16.12.2026 -
Ammar Ramadan DAC Dunajska Streda Aktiv 112 / 118 40% 2 15.12.2026 -
Joseph Wakaso Wa All Stars Aktiv 116 / 100 40% 2 14.12.2026 -
Mbekezeli Mbokazi Chicago Fire Aktiv 125 / 126 40% 1 12.12.2026 -
Marvelous Freedom Ikorodu City Aktiv 97 / 86 40% 1 09.12.2026 -
Williams Manyama SuperSport United Aktiv 113 / 112 40% 1 06.12.2026 -
Joaquín Gho Argentinos Juniors Aktiv 124 / 130 40% 1 02.12.2026 -
Romano Schmid Frosinone Aktiv 129 / 149 40% 1 29.11.2026 -
Antonio Galeano Remo Stars Aktiv 123 / 123 40% 3 27.11.2026 -
Jack Currie Oxford United Aktiv 111 / 136 40% 3 26.11.2026 -
Siyanda Ndlovu Bloemfontein Celtic Aktiv 114 / 127 40% 4 25.11.2026 -
João Gomes Aston Villa Aktiv 141 / 129 40% 4 23.11.2026 -
Daniel Kyerewaa Reading Aktiv 111 / 111 40% 1 15.11.2026 -
Philippe Ndinga Philadelphia Union Aktiv 121 / 130 40% 1 11.11.2026 -
Joel Ezra Enyimba Aktiv 95 / 100 40% 1 10.11.2026 -
Jofrank Istifanus Nasarawa United Aktiv 88 / 95 40% 1 04.11.2026 -
Conrad Wallem Austria Wien Aktiv 128 / 135 40% 1 29.10.2026 -
Iván Angulo Orlando City Aktiv 119 / 140 40% 2 24.10.2026 -
Caolan Boyd-Munce Wycombe Wanderers Aktiv 129 / 130 40% 1 24.10.2026 -
Mfundo Vilakazi Kaizer Chiefs Aktiv 96 / 100 40% 1 20.10.2026 -
Thabang Matuludi Polokwane City Aktiv 96 / 113 40% 1 19.10.2026 -
Facundo Mura Inter Miami CF Aktiv 120 / 138 40% 1 17.10.2026 -
Bénie Traoré New York City Aktiv 125 / 125 40% 1 10.10.2026 -
Luca Connell Barnsley Aktiv 103 / 108 40% 1 10.10.2026 -
Tadeo Allende Inter Miami CF Aktiv 132 / 127 40% 2 09.10.2026 -
Griffin Yow New England Revolution Aktiv 123 / 122 40% 1 08.10.2026 -
Olaniyi Saheed Kwara United Aktiv 92 / 95 40% 1 10.09.2026 -
Tyler Fletcher Manchester United Aktiv 101 / 104 40% 1 10.09.2026 -
Emmanuel Akpan Bendel Insurance Aktiv 85 / 81 40% 1 08.09.2026 -
Ainsley Maitland-Niles Everton Aktiv 133 / 158 40% 1 01.08.2026 -